sensor_id;sensor_type;location;lat;lon;timestamp;pressure;altitude;pressure_sealevel;temperature;humidity
76128;BME280;64873;50.102;14.434;2023-04-08T00:00:23;99504.22;;;4.31;81.63
76128;BME280;64873;50.102;14.434;2023-04-08T00:02:49;99510.69;;;4.28;81.99
76128;BME280;64873;50.102;14.434;2023-04-08T00:05:15;99507.03;;;4.30;82.16
76128;BME280;64873;50.102;14.434;2023-04-08T00:07:41;99495.63;;;4.29;82.23
76128;BME280;64873;50.102;14.434;2023-04-08T00:10:07;99487.69;;;4.21;82.45
76128;BME280;64873;50.102;14.434;2023-04-08T00:12:32;99501.25;;;4.34;82.35
76128;BME280;64873;50.102;14.434;2023-04-08T00:14:57;99503.88;;;4.34;82.54
76128;BME280;64873;50.102;14.434;2023-04-08T00:17:23;99505.84;;;4.32;82.86
76128;BME280;64873;50.102;14.434;2023-04-08T00:19:48;99484.91;;;4.22;82.71
76128;BME280;64873;50.102;14.434;2023-04-08T00:22:14;99486.41;;;4.17;82.78
76128;BME280;64873;50.102;14.434;2023-04-08T00:24:39;99504.06;;;4.24;83.22
76128;BME280;64873;50.102;14.434;2023-04-08T00:27:05;99501.25;;;4.26;83.37
76128;BME280;64873;50.102;14.434;2023-04-08T00:29:30;99498.28;;;4.21;83.18
76128;BME280;64873;50.102;14.434;2023-04-08T00:31:56;99505.56;;;4.19;83.12
76128;BME280;64873;50.102;14.434;2023-04-08T00:34:22;99496.00;;;4.18;83.22
76128;BME280;64873;50.102;14.434;2023-04-08T00:36:47;99498.63;;;4.18;83.28
76128;BME280;64873;50.102;14.434;2023-04-08T00:39:13;99505.88;;;4.24;83.27
76128;BME280;64873;50.102;14.434;2023-04-08T00:41:38;99503.72;;;4.27;83.21
76128;BME280;64873;50.102;14.434;2023-04-08T00:44:04;99510.88;;;4.19;83.49
76128;BME280;64873;50.102;14.434;2023-04-08T00:46:35;99508.22;;;4.19;83.41
76128;BME280;64873;50.102;14.434;2023-04-08T00:49:02;99512.38;;;4.13;82.87
76128;BME280;64873;50.102;14.434;2023-04-08T00:51:28;99502.09;;;4.10;82.81
76128;BME280;64873;50.102;14.434;2023-04-08T00:53:54;99508.06;;;4.12;83.05
76128;BME280;64873;50.102;14.434;2023-04-08T00:56:20;99505.25;;;4.14;82.53
76128;BME280;64873;50.102;14.434;2023-04-08T00:58:46;99494.34;;;4.09;83.21
76128;BME280;64873;50.102;14.434;2023-04-08T01:01:16;99502.97;;;4.11;82.89
76128;BME280;64873;50.102;14.434;2023-04-08T01:06:31;99487.78;;;4.05;82.98
76128;BME280;64873;50.102;14.434;2023-04-08T01:08:59;99491.38;;;4.12;82.93
76128;BME280;64873;50.102;14.434;2023-04-08T01:11:31;99494.34;;;4.09;82.82
76128;BME280;64873;50.102;14.434;2023-04-08T01:14:01;99481.16;;;4.00;83.22
76128;BME280;64873;50.102;14.434;2023-04-08T01:16:30;99498.00;;;4.08;82.90
76128;BME280;64873;50.102;14.434;2023-04-08T01:18:56;99501.00;;;4.05;82.84
76128;BME280;64873;50.102;14.434;2023-04-08T01:21:22;99498.00;;;4.08;82.90
76128;BME280;64873;50.102;14.434;2023-04-08T01:24:03;99490.91;;;4.00;83.05
76128;BME280;64873;50.102;14.434;2023-04-08T01:26:31;99497.81;;;4.09;82.77
76128;BME280;64873;50.102;14.434;2023-04-08T01:28:59;99499.19;;;4.05;82.98
76128;BME280;64873;50.102;14.434;2023-04-08T01:31:26;99494.72;;;4.06;83.25
76128;BME280;64873;50.102;14.434;2023-04-08T01:33:53;99484.50;;;3.94;82.97
76128;BME280;64873;50.102;14.434;2023-04-08T01:36:19;99502.97;;;4.11;82.67
76128;BME280;64873;50.102;14.434;2023-04-08T01:38:47;99504.94;;;4.09;82.69
76128;BME280;64873;50.102;14.434;2023-04-08T01:41:15;99495.72;;;4.05;82.47
76128;BME280;64873;50.102;14.434;2023-04-08T01:43:42;99493.06;;;3.96;82.41
76128;BME280;64873;50.102;14.434;2023-04-08T01:46:09;99485.13;;;3.96;82.42
76128;BME280;64873;50.102;14.434;2023-04-08T01:48:36;99484.13;;;3.97;82.79
76128;BME280;64873;50.102;14.434;2023-04-08T01:51:03;99499.00;;;4.07;82.47
76128;BME280;64873;50.102;14.434;2023-04-08T01:53:29;99504.47;;;4.05;82.35
76128;BME280;64873;50.102;14.434;2023-04-08T01:55:59;99506.59;;;4.01;82.43
76128;BME280;64873;50.102;14.434;2023-04-08T01:58:31;99505.94;;;4.08;82.31
76128;BME280;64873;50.102;14.434;2023-04-08T02:01:01;99488.81;;;3.87;82.82
76128;BME280;64873;50.102;14.434;2023-04-08T02:03:28;99505.59;;;4.03;82.78
76128;BME280;64873;50.102;14.434;2023-04-08T02:05:54;99511.91;;;4.01;82.61
76128;BME280;64873;50.102;14.434;2023-04-08T02:08:20;99484.13;;;3.97;82.55
76128;BME280;64873;50.102;14.434;2023-04-08T02:10:45;99507.91;;;4.14;82.97
76128;BME280;64873;50.102;14.434;2023-04-08T02:13:11;99490.56;;;4.03;82.69
76128;BME280;64873;50.102;14.434;2023-04-08T02:15:40;99514.50;;;4.10;82.79
76128;BME280;64873;50.102;14.434;2023-04-08T02:18:15;99485.13;;;3.96;82.52
76128;BME280;64873;50.102;14.434;2023-04-08T02:20:53;99505.59;;;4.03;82.85
76128;BME280;64873;50.102;14.434;2023-04-08T02:23:23;99484.81;;;3.99;82.97
76128;BME280;64873;50.102;14.434;2023-04-08T02:25:49;99489.41;;;4.06;83.12
76128;BME280;64873;50.102;14.434;2023-04-08T02:28:17;99501.00;;;4.05;83.09
76128;BME280;64873;50.102;14.434;2023-04-08T02:30:50;99500.63;;;4.08;83.16
76128;BME280;64873;50.102;14.434;2023-04-08T02:33:19;99501.78;;;4.13;82.82
76128;BME280;64873;50.102;14.434;2023-04-08T02:35:47;99486.97;;;3.96;83.09
76128;BME280;64873;50.102;14.434;2023-04-08T02:38:13;99500.81;;;4.06;82.99
76128;BME280;64873;50.102;14.434;2023-04-08T02:40:40;99504.13;;;4.00;83.29
76128;BME280;64873;50.102;14.434;2023-04-08T02:43:06;99506.28;;;4.05;82.99
76128;BME280;64873;50.102;14.434;2023-04-08T02:45:37;99509.91;;;4.12;82.88
76128;BME280;64873;50.102;14.434;2023-04-08T02:48:05;99506.94;;;4.07;82.91
76128;BME280;64873;50.102;14.434;2023-04-08T02:50:30;99503.16;;;3.93;82.97
76128;BME280;64873;50.102;14.434;2023-04-08T02:52:56;99510.91;;;4.11;82.74
76128;BME280;64873;50.102;14.434;2023-04-08T02:55:21;99504.28;;;3.98;82.29
76128;BME280;64873;50.102;14.434;2023-04-08T02:57:47;99514.50;;;4.10;82.25
76128;BME280;64873;50.102;14.434;2023-04-08T03:00:14;99516.97;;;4.19;82.05
76128;BME280;64873;50.102;14.434;2023-04-08T03:02:39;99509.56;;;4.07;82.60
76128;BME280;64873;50.102;14.434;2023-04-08T03:05:05;99510.53;;;4.14;82.32
76128;BME280;64873;50.102;14.434;2023-04-08T03:07:31;99515.19;;;4.12;82.37
76128;BME280;64873;50.102;14.434;2023-04-08T03:09:57;99516.84;;;4.13;82.21
76128;BME280;64873;50.102;14.434;2023-04-08T03:12:22;99519.13;;;4.24;82.19
76128;BME280;64873;50.102;14.434;2023-04-08T03:14:49;99518.97;;;4.17;82.73
76128;BME280;64873;50.102;14.434;2023-04-08T03:17:15;99506.91;;;4.15;82.41
76128;BME280;64873;50.102;14.434;2023-04-08T03:19:40;99525.22;;;4.24;82.51
76128;BME280;64873;50.102;14.434;2023-04-08T03:22:06;99519.44;;;4.21;82.24
76128;BME280;64873;50.102;14.434;2023-04-08T03:24:34;99527.69;;;4.26;82.23
76128;BME280;64873;50.102;14.434;2023-04-08T03:26:59;99503.56;;;4.21;82.00
76128;BME280;64873;50.102;14.434;2023-04-08T03:29:25;99512.31;;;4.30;81.95
76128;BME280;64873;50.102;14.434;2023-04-08T03:31:51;99519.13;;;4.24;82.20
76128;BME280;64873;50.102;14.434;2023-04-08T03:34:16;99512.19;;;4.23;82.32
76128;BME280;64873;50.102;14.434;2023-04-08T03:36:42;99517.78;;;4.28;82.53
76128;BME280;64873;50.102;14.434;2023-04-08T03:39:07;99522.09;;;4.29;83.31
76128;BME280;64873;50.102;14.434;2023-04-08T03:41:32;99520.44;;;4.28;83.19
76128;BME280;64873;50.102;14.434;2023-04-08T03:43:58;99518.75;;;4.27;83.34
76128;BME280;64873;50.102;14.434;2023-04-08T03:46:23;99514.19;;;4.13;83.58
76128;BME280;64873;50.102;14.434;2023-04-08T03:48:49;99518.16;;;4.09;83.77
76128;BME280;64873;50.102;14.434;2023-04-08T03:51:14;99517.78;;;4.20;84.10
76128;BME280;64873;50.102;14.434;2023-04-08T03:53:39;99521.75;;;4.16;83.76
76128;BME280;64873;50.102;14.434;2023-04-08T03:56:05;99522.44;;;4.10;83.73
76128;BME280;64873;50.102;14.434;2023-04-08T03:58:31;99526.91;;;4.09;84.30
76128;BME280;64873;50.102;14.434;2023-04-08T04:00:56;99534.34;;;4.14;84.56
76128;BME280;64873;50.102;14.434;2023-04-08T04:03:22;99533.50;;;4.30;83.68
76128;BME280;64873;50.102;14.434;2023-04-08T04:05:48;99535.81;;;4.24;83.41
76128;BME280;64873;50.102;14.434;2023-04-08T04:08:13;99533.66;;;4.20;83.94
76128;BME280;64873;50.102;14.434;2023-04-08T04:10:39;99547.72;;;4.20;83.73
76128;BME280;64873;50.102;14.434;2023-04-08T04:13:05;99541.97;;;4.17;84.00
76128;BME280;64873;50.102;14.434;2023-04-08T04:15:31;99545.56;;;4.24;83.73
76128;BME280;64873;50.102;14.434;2023-04-08T04:17:56;99547.06;;;4.18;83.56
76128;BME280;64873;50.102;14.434;2023-04-08T04:20:21;99547.06;;;4.18;83.88
76128;BME280;64873;50.102;14.434;2023-04-08T04:22:47;99547.06;;;4.18;83.77
76128;BME280;64873;50.102;14.434;2023-04-08T04:25:12;99543.44;;;4.03;83.97
76128;BME280;64873;50.102;14.434;2023-04-08T04:27:38;99549.22;;;4.15;83.98
76128;BME280;64873;50.102;14.434;2023-04-08T04:30:05;99552.19;;;4.28;83.16
76128;BME280;64873;50.102;14.434;2023-04-08T04:32:31;99561.41;;;4.32;83.49
76128;BME280;64873;50.102;14.434;2023-04-08T04:34:56;99546.72;;;4.21;83.33
76128;BME280;64873;50.102;14.434;2023-04-08T04:37:22;99567.84;;;4.38;83.38
76128;BME280;64873;50.102;14.434;2023-04-08T04:39:47;99565.41;;;4.28;83.50
76128;BME280;64873;50.102;14.434;2023-04-08T04:42:13;99568.34;;;4.33;83.75
76128;BME280;64873;50.102;14.434;2023-04-08T04:44:38;99567.84;;;4.38;83.80
76128;BME280;64873;50.102;14.434;2023-04-08T04:47:04;99573.50;;;4.35;83.21
76128;BME280;64873;50.102;14.434;2023-04-08T04:49:30;99574.78;;;4.39;83.77
76128;BME280;64873;50.102;14.434;2023-04-08T04:51:55;99575.47;;;4.41;83.41
76128;BME280;64873;50.102;14.434;2023-04-08T04:54:21;99569.50;;;4.39;83.35
76128;BME280;64873;50.102;14.434;2023-04-08T04:56:46;99578.09;;;4.41;83.57
76128;BME280;64873;50.102;14.434;2023-04-08T04:59:12;99577.56;;;4.45;83.27
76128;BME280;64873;50.102;14.434;2023-04-08T05:01:37;99579.56;;;4.43;83.57
76128;BME280;64873;50.102;14.434;2023-04-08T05:04:05;99577.59;;;4.37;83.50
76128;BME280;64873;50.102;14.434;2023-04-08T05:06:30;99571.50;;;4.37;83.85
76128;BME280;64873;50.102;14.434;2023-04-08T05:08:56;99574.97;;;4.37;83.67
76128;BME280;64873;50.102;14.434;2023-04-08T05:11:21;99577.41;;;4.47;83.02
76128;BME280;64873;50.102;14.434;2023-04-08T05:13:47;99590.47;;;4.48;83.06
76128;BME280;64873;50.102;14.434;2023-04-08T05:16:12;99590.97;;;4.52;83.05
76128;BME280;64873;50.102;14.434;2023-04-08T05:18:38;99572.31;;;4.37;83.11
76128;BME280;64873;50.102;14.434;2023-04-08T05:21:03;99591.28;;;4.49;83.26
76128;BME280;64873;50.102;14.434;2023-04-08T05:23:29;99589.53;;;4.25;83.51
76128;BME280;64873;50.102;14.434;2023-04-08T05:25:54;99604.72;;;4.47;83.23
76128;BME280;64873;50.102;14.434;2023-04-08T05:28:20;99605.53;;;4.48;82.97
76128;BME280;64873;50.102;14.434;2023-04-08T05:30:49;99603.19;;;4.53;82.88
76128;BME280;64873;50.102;14.434;2023-04-08T05:33:15;99595.63;;;4.42;82.90
76128;BME280;64873;50.102;14.434;2023-04-08T05:35:41;99612.97;;;4.52;82.79
76128;BME280;64873;50.102;14.434;2023-04-08T05:38:06;99602.38;;;4.52;82.96
76128;BME280;64873;50.102;14.434;2023-04-08T05:40:32;99604.53;;;4.49;83.05
76128;BME280;64873;50.102;14.434;2023-04-08T05:42:57;99620.72;;;4.54;83.20
76128;BME280;64873;50.102;14.434;2023-04-08T05:45:22;99599.06;;;4.50;82.96
76128;BME280;64873;50.102;14.434;2023-04-08T05:47:48;99611.97;;;4.45;83.48
76128;BME280;64873;50.102;14.434;2023-04-08T05:50:13;99602.84;;;4.56;82.88
76128;BME280;64873;50.102;14.434;2023-04-08T05:52:43;99614.59;;;4.45;82.89
76128;BME280;64873;50.102;14.434;2023-04-08T05:55:09;99617.72;;;4.57;82.93
76128;BME280;64873;50.102;14.434;2023-04-08T05:57:35;99622.38;;;4.55;82.90
76128;BME280;64873;50.102;14.434;2023-04-08T06:00:01;99622.69;;;4.60;82.86
76128;BME280;64873;50.102;14.434;2023-04-08T06:02:26;99624.84;;;4.57;82.91
76128;BME280;64873;50.102;14.434;2023-04-08T06:04:51;99620.56;;;4.64;82.66
76128;BME280;64873;50.102;14.434;2023-04-08T06:07:17;99628.50;;;4.64;82.82
76128;BME280;64873;50.102;14.434;2023-04-08T06:09:43;99626.81;;;4.63;82.99
76128;BME280;64873;50.102;14.434;2023-04-08T06:12:08;99616.56;;;4.60;82.51
76128;BME280;64873;50.102;14.434;2023-04-08T06:14:33;99632.78;;;4.65;82.56
76128;BME280;64873;50.102;14.434;2023-04-08T06:16:59;99630.13;;;4.65;83.18
76128;BME280;64873;50.102;14.434;2023-04-08T06:19:24;99638.25;;;4.55;84.05
76128;BME280;64873;50.102;14.434;2023-04-08T06:21:50;99637.72;;;4.68;84.63
76128;BME280;64873;50.102;14.434;2023-04-08T06:24:16;99625.84;;;4.64;84.57
76128;BME280;64873;50.102;14.434;2023-04-08T06:26:41;99633.59;;;4.65;84.71
76128;BME280;64873;50.102;14.434;2023-04-08T06:29:07;99633.47;;;4.59;84.27
76128;BME280;64873;50.102;14.434;2023-04-08T06:31:33;99640.72;;;4.57;84.25
76128;BME280;64873;50.102;14.434;2023-04-08T06:33:59;99644.34;;;4.72;84.77
76128;BME280;64873;50.102;14.434;2023-04-08T06:36:24;99641.22;;;4.60;84.69
76128;BME280;64873;50.102;14.434;2023-04-08T06:38:50;99645.34;;;4.63;84.17
76128;BME280;64873;50.102;14.434;2023-04-08T06:41:15;99627.78;;;4.78;84.10
76128;BME280;64873;50.102;14.434;2023-04-08T06:43:41;99649.88;;;5.01;83.35
76128;BME280;64873;50.102;14.434;2023-04-08T06:46:06;99652.56;;;4.93;82.98
76128;BME280;64873;50.102;14.434;2023-04-08T06:48:31;99651.41;;;4.88;83.16
76128;BME280;64873;50.102;14.434;2023-04-08T06:50:58;99644.16;;;4.81;83.39
76128;BME280;64873;50.102;14.434;2023-04-08T06:53:25;99666.47;;;4.87;83.73
76128;BME280;64873;50.102;14.434;2023-04-08T06:55:53;99649.13;;;4.68;83.55
76128;BME280;64873;50.102;14.434;2023-04-08T06:58:19;99659.56;;;4.70;84.02
76128;BME280;64873;50.102;14.434;2023-04-08T07:00:44;99667.75;;;4.91;82.90
76128;BME280;64873;50.102;14.434;2023-04-08T07:03:10;99667.09;;;4.97;83.24
76128;BME280;64873;50.102;14.434;2023-04-08T07:05:36;99667.75;;;4.91;83.25
76128;BME280;64873;50.102;14.434;2023-04-08T07:08:01;99668.97;;;5.20;81.80
76128;BME280;64873;50.102;14.434;2023-04-08T07:10:27;99680.84;;;5.32;81.25
76128;BME280;64873;50.102;14.434;2023-04-08T07:12:53;99679.91;;;5.25;80.48
76128;BME280;64873;50.102;14.434;2023-04-08T07:15:18;99675.41;;;5.56;80.12
76128;BME280;64873;50.102;14.434;2023-04-08T07:17:44;99662.88;;;5.19;80.37
76128;BME280;64873;50.102;14.434;2023-04-08T07:20:10;99684.75;;;5.44;80.54
76128;BME280;64873;50.102;14.434;2023-04-08T07:22:36;99687.19;;;5.85;79.06
76128;BME280;64873;50.102;14.434;2023-04-08T07:25:01;99691.59;;;6.01;78.72
76128;BME280;64873;50.102;14.434;2023-04-08T07:27:27;99688.25;;;5.45;80.52
76128;BME280;64873;50.102;14.434;2023-04-08T07:29:53;99694.66;;;5.58;80.44
76128;BME280;64873;50.102;14.434;2023-04-08T07:32:19;99693.59;;;5.68;79.39
76128;BME280;64873;50.102;14.434;2023-04-08T07:34:45;99695.13;;;5.93;78.63
76128;BME280;64873;50.102;14.434;2023-04-08T07:37:10;99692.28;;;5.95;77.80
76128;BME280;64873;50.102;14.434;2023-04-08T07:39:37;99691.41;;;6.02;77.39
76128;BME280;64873;50.102;14.434;2023-04-08T07:42:02;99695.50;;;5.82;77.97
76128;BME280;64873;50.102;14.434;2023-04-08T07:44:28;99700.06;;;5.96;77.70
76128;BME280;64873;50.102;14.434;2023-04-08T07:46:53;99707.84;;;5.67;78.89
76128;BME280;64873;50.102;14.434;2023-04-08T07:49:18;99714.03;;;5.59;79.75
76128;BME280;64873;50.102;14.434;2023-04-08T07:51:44;99710.69;;;5.65;79.93
76128;BME280;64873;50.102;14.434;2023-04-08T07:54:09;99699.19;;;5.42;80.19
76128;BME280;64873;50.102;14.434;2023-04-08T07:56:36;99714.91;;;5.51;79.82
76128;BME280;64873;50.102;14.434;2023-04-08T07:59:05;99724.50;;;5.52;80.02
76128;BME280;64873;50.102;14.434;2023-04-08T08:01:31;99727.59;;;5.95;78.42
76128;BME280;64873;50.102;14.434;2023-04-08T08:03:59;99730.38;;;5.71;79.00
76128;BME280;64873;50.102;14.434;2023-04-08T08:06:24;99727.50;;;6.11;77.26
76128;BME280;64873;50.102;14.434;2023-04-08T08:08:50;99715.81;;;6.21;76.38
76128;BME280;64873;50.102;14.434;2023-04-08T08:11:15;99735.97;;;5.76;78.47
76128;BME280;64873;50.102;14.434;2023-04-08T08:13:41;99737.06;;;5.89;77.92
76128;BME280;64873;50.102;14.434;2023-04-08T08:16:06;99743.19;;;5.98;77.53
76128;BME280;64873;50.102;14.434;2023-04-08T08:18:38;99744.53;;;5.86;78.16
76128;BME280;64873;50.102;14.434;2023-04-08T08:21:04;99746.09;;;6.03;77.52
76128;BME280;64873;50.102;14.434;2023-04-08T08:23:30;99747.78;;;6.04;77.38
76128;BME280;64873;50.102;14.434;2023-04-08T08:26:02;99751.66;;;5.94;77.67
76128;BME280;64873;50.102;14.434;2023-04-08T08:28:28;99754.59;;;5.91;77.93
76128;BME280;64873;50.102;14.434;2023-04-08T08:30:53;99754.75;;;5.97;78.03
76128;BME280;64873;50.102;14.434;2023-04-08T08:33:19;99760.88;;;6.29;76.34
76128;BME280;64873;50.102;14.434;2023-04-08T08:35:44;99759.75;;;6.23;76.98
76128;BME280;64873;50.102;14.434;2023-04-08T08:38:10;99761.50;;;6.31;75.98
76128;BME280;64873;50.102;14.434;2023-04-08T08:40:38;99764.34;;;6.06;76.92
76128;BME280;64873;50.102;14.434;2023-04-08T08:43:03;99766.50;;;5.72;77.89
76128;BME280;64873;50.102;14.434;2023-04-08T08:45:28;99779.63;;;5.65;78.66
76128;BME280;64873;50.102;14.434;2023-04-08T08:47:55;99761.88;;;5.66;78.29
76128;BME280;64873;50.102;14.434;2023-04-08T08:50:21;99774.44;;;5.72;78.71
76128;BME280;64873;50.102;14.434;2023-04-08T08:52:50;99780.22;;;5.75;78.21
76128;BME280;64873;50.102;14.434;2023-04-08T08:55:20;99784.34;;;5.78;78.65
76128;BME280;64873;50.102;14.434;2023-04-08T08:57:49;99785.19;;;5.78;78.66
76128;BME280;64873;50.102;14.434;2023-04-08T09:00:15;99786.00;;;5.79;78.83
76128;BME280;64873;50.102;14.434;2023-04-08T09:02:42;99795.00;;;6.09;77.43
76128;BME280;64873;50.102;14.434;2023-04-08T09:05:07;99800.97;;;6.11;76.68
76128;BME280;64873;50.102;14.434;2023-04-08T09:07:37;99798.56;;;5.93;77.47
76128;BME280;64873;50.102;14.434;2023-04-08T09:10:05;99801.59;;;5.82;77.71
76128;BME280;64873;50.102;14.434;2023-04-08T09:12:31;99807.03;;;6.20;76.61
76128;BME280;64873;50.102;14.434;2023-04-08T09:15:06;99807.13;;;6.03;76.68
76128;BME280;64873;50.102;14.434;2023-04-08T09:17:34;99812.59;;;6.33;75.98
76128;BME280;64873;50.102;14.434;2023-04-08T09:22:33;99794.44;;;6.22;75.61
76128;BME280;64873;50.102;14.434;2023-04-08T09:24:59;99804.38;;;6.20;75.23
76128;BME280;64873;50.102;14.434;2023-04-08T09:27:34;99810.22;;;6.38;74.82
76128;BME280;64873;50.102;14.434;2023-04-08T09:30:13;99828.09;;;6.90;73.68
76128;BME280;64873;50.102;14.434;2023-04-08T09:32:49;99825.63;;;6.65;73.87
76128;BME280;64873;50.102;14.434;2023-04-08T09:35:15;99824.53;;;6.98;72.88
76128;BME280;64873;50.102;14.434;2023-04-08T09:37:41;99822.00;;;7.04;72.29
76128;BME280;64873;50.102;14.434;2023-04-08T09:40:07;99820.00;;;6.68;73.11
76128;BME280;64873;50.102;14.434;2023-04-08T09:42:35;99803.75;;;7.01;72.61
76128;BME280;64873;50.102;14.434;2023-04-08T09:45:05;99816.16;;;6.86;72.45
76128;BME280;64873;50.102;14.434;2023-04-08T09:50:15;99803.91;;;6.62;72.79
76128;BME280;64873;50.102;14.434;2023-04-08T09:52:43;99831.72;;;7.27;71.18
76128;BME280;64873;50.102;14.434;2023-04-08T09:55:12;99817.22;;;7.00;72.00
76128;BME280;64873;50.102;14.434;2023-04-08T09:57:43;99821.28;;;7.10;71.85
76128;BME280;64873;50.102;14.434;2023-04-08T10:00:14;99828.06;;;7.13;71.50
76128;BME280;64873;50.102;14.434;2023-04-08T10:03:10;99831.97;;;7.02;71.35
76128;BME280;64873;50.102;14.434;2023-04-08T10:05:40;99822.53;;;7.00;70.64
76128;BME280;64873;50.102;14.434;2023-04-08T10:08:08;99832.84;;;7.17;70.65
76128;BME280;64873;50.102;14.434;2023-04-08T10:10:35;99823.66;;;7.20;69.99
76128;BME280;64873;50.102;14.434;2023-04-08T10:13:03;99827.06;;;7.43;68.48
76128;BME280;64873;50.102;14.434;2023-04-08T10:15:35;99827.22;;;7.12;68.87
76128;BME280;64873;50.102;14.434;2023-04-08T10:23:02;99813.66;;;7.96;67.27
76128;BME280;64873;50.102;14.434;2023-04-08T10:25:36;99827.91;;;7.44;68.25
76128;BME280;64873;50.102;14.434;2023-04-08T10:30:54;99833.84;;;8.26;65.84
76128;BME280;64873;50.102;14.434;2023-04-08T10:33:24;99833.22;;;7.73;67.80
76128;BME280;64873;50.102;14.434;2023-04-08T10:36:09;99833.31;;;7.65;67.58
76128;BME280;64873;50.102;14.434;2023-04-08T10:38:36;99832.03;;;7.61;67.48
76128;BME280;64873;50.102;14.434;2023-04-08T10:41:01;99829.81;;;7.80;66.71
76128;BME280;64873;50.102;14.434;2023-04-08T10:43:32;99823.88;;;7.63;67.53
76128;BME280;64873;50.102;14.434;2023-04-08T10:45:57;99839.56;;;7.58;67.04
76128;BME280;64873;50.102;14.434;2023-04-08T10:48:24;99842.88;;;7.45;67.16
76128;BME280;64873;50.102;14.434;2023-04-08T10:51:00;99847.97;;;7.32;67.60
76128;BME280;64873;50.102;14.434;2023-04-08T10:53:36;99845.31;;;7.32;67.54
76128;BME280;64873;50.102;14.434;2023-04-08T10:56:04;99836.97;;;7.35;68.13
76128;BME280;64873;50.102;14.434;2023-04-08T10:58:31;99842.50;;;7.48;67.76
76128;BME280;64873;50.102;14.434;2023-04-08T11:01:05;99848.28;;;7.52;67.66
76128;BME280;64873;50.102;14.434;2023-04-08T11:03:35;99837.88;;;7.12;69.12
76128;BME280;64873;50.102;14.434;2023-04-08T11:06:01;99845.88;;;7.42;68.10
76128;BME280;64873;50.102;14.434;2023-04-08T11:08:28;99848.28;;;7.52;67.99
76128;BME280;64873;50.102;14.434;2023-04-08T11:10:57;99843.13;;;7.50;68.09
76128;BME280;64873;50.102;14.434;2023-04-08T11:13:22;99854.22;;;7.39;68.54
76128;BME280;64873;50.102;14.434;2023-04-08T11:15:48;99842.88;;;7.45;67.32
76128;BME280;64873;50.102;14.434;2023-04-08T11:18:14;99847.81;;;7.48;67.61
76128;BME280;64873;50.102;14.434;2023-04-08T11:20:42;99841.91;;;7.38;66.45
76128;BME280;64873;50.102;14.434;2023-04-08T11:23:15;99846.69;;;7.42;66.87
76128;BME280;64873;50.102;14.434;2023-04-08T11:25:45;99852.03;;;7.57;66.12
76128;BME280;64873;50.102;14.434;2023-04-08T11:28:15;99855.88;;;7.40;67.15
76128;BME280;64873;50.102;14.434;2023-04-08T11:30:42;99861.28;;;7.46;67.20
76128;BME280;64873;50.102;14.434;2023-04-08T11:33:08;99855.88;;;7.40;66.96
76128;BME280;64873;50.102;14.434;2023-04-08T11:35:34;99847.91;;;7.40;67.00
76128;BME280;64873;50.102;14.434;2023-04-08T11:37:59;99868.16;;;7.85;65.89
76128;BME280;64873;50.102;14.434;2023-04-08T11:40:25;99860.91;;;7.49;66.84
76128;BME280;64873;50.102;14.434;2023-04-08T11:42:51;99864.78;;;7.47;67.05
76128;BME280;64873;50.102;14.434;2023-04-08T11:45:18;99855.44;;;7.51;67.46
76128;BME280;64873;50.102;14.434;2023-04-08T11:47:46;99866.13;;;7.43;68.01
76128;BME280;64873;50.102;14.434;2023-04-08T11:50:11;99863.75;;;7.48;67.80
76128;BME280;64873;50.102;14.434;2023-04-08T11:52:47;99862.97;;;7.62;67.06
76128;BME280;64873;50.102;14.434;2023-04-08T11:55:27;99865.88;;;7.82;65.35
76128;BME280;64873;50.102;14.434;2023-04-08T11:57:54;99862.13;;;7.77;65.98
76128;BME280;64873;50.102;14.434;2023-04-08T12:00:21;99852.88;;;7.58;66.05
76128;BME280;64873;50.102;14.434;2023-04-08T12:02:47;99864.97;;;7.75;65.57
76128;BME280;64873;50.102;14.434;2023-04-08T12:05:16;99853.13;;;7.78;65.02
76128;BME280;64873;50.102;14.434;2023-04-08T12:07:42;99860.84;;;7.72;65.41
76128;BME280;64873;50.102;14.434;2023-04-08T12:10:08;99855.91;;;7.69;65.68
76128;BME280;64873;50.102;14.434;2023-04-08T12:12:34;99854.97;;;7.62;66.23
76128;BME280;64873;50.102;14.434;2023-04-08T12:14:59;99863.03;;;7.54;66.22
76128;BME280;64873;50.102;14.434;2023-04-08T12:17:25;99843.94;;;7.36;67.03
76128;BME280;64873;50.102;14.434;2023-04-08T12:19:50;99862.38;;;7.22;67.19
76128;BME280;64873;50.102;14.434;2023-04-08T12:22:16;99866.50;;;7.40;67.02
76128;BME280;64873;50.102;14.434;2023-04-08T12:24:41;99867.69;;;7.22;67.21
76128;BME280;64873;50.102;14.434;2023-04-08T12:27:07;99874.41;;;7.33;67.44
76128;BME280;64873;50.102;14.434;2023-04-08T12:29:32;99875.66;;;7.22;67.45
76128;BME280;64873;50.102;14.434;2023-04-08T12:31:58;99879.56;;;7.12;67.88
76128;BME280;64873;50.102;14.434;2023-04-08T12:34:24;99873.47;;;7.03;67.95
76128;BME280;64873;50.102;14.434;2023-04-08T12:36:49;99887.72;;;7.10;68.35
76128;BME280;64873;50.102;14.434;2023-04-08T12:39:15;99881.22;;;7.13;68.57
76128;BME280;64873;50.102;14.434;2023-04-08T12:41:40;99889.38;;;7.11;68.79
76128;BME280;64873;50.102;14.434;2023-04-08T12:44:06;99892.44;;;7.23;68.93
76128;BME280;64873;50.102;14.434;2023-04-08T12:46:32;99882.25;;;7.27;68.99
76128;BME280;64873;50.102;14.434;2023-04-08T12:48:57;99886.84;;;7.33;68.79
76128;BME280;64873;50.102;14.434;2023-04-08T12:51:23;99888.03;;;7.30;68.81
76128;BME280;64873;50.102;14.434;2023-04-08T12:53:50;99886.84;;;7.33;68.70
76128;BME280;64873;50.102;14.434;2023-04-08T12:56:15;99890.34;;;7.48;67.13
76128;BME280;64873;50.102;14.434;2023-04-08T12:58:41;99876.97;;;7.56;67.24
76128;BME280;64873;50.102;14.434;2023-04-08T13:01:06;99887.72;;;7.63;66.99
76128;BME280;64873;50.102;14.434;2023-04-08T13:03:32;99887.00;;;7.69;67.18
76128;BME280;64873;50.102;14.434;2023-04-08T13:05:59;99887.53;;;7.94;66.09
76128;BME280;64873;50.102;14.434;2023-04-08T13:08:25;99877.16;;;7.99;63.72
76128;BME280;64873;50.102;14.434;2023-04-08T13:10:50;99890.16;;;8.23;62.89
76128;BME280;64873;50.102;14.434;2023-04-08T13:13:15;99884.28;;;8.13;63.25